Country
Station

 

Weather  for  Wewak  -  Papua New Guinea    Papua New Guinea

  
31 °C (88 °F)
    
 
 

Current METAR for Wewak is :

AYWK 300300Z 09010KT 9999 SCT020 31/24 Q1010 RMKS

 

This is a report for Wewak - Papua New Guinea.
 
The report was made 58 hours and 32 minutes ago, at 03:00 UTC .
The wind was blowing at a speed of 5.1 meters per second (11.5 miles per hour) from east (090°).
 
The temperature was 31 °C (88 °F), with a dew-point at 24 °C (75 °F).
The temperature felt like 37 °C (98 °F).
 
The atmospheric pressure was 1010 hPa (29.83 inHg).
The relative humidity was 66.4%.
 
There were scattered clouds at a height of 610 meters (2000 feet).
 
The overall visibility was greater than 10 kilometers (6.2 miles).
 

 
 
 
 

Country :   A   B   C   D   E   F   G   H   I   J   K   L   M   N   O   P   Q   R   S   T   U   V   W   Y   Z

 

Site Info  |  Disclaimer  |  Credits  |  Privacy
Contact us  |  Add to favorites
© 2013-2020 METARs - All rights reserved